sensor_id;sensor_type;location;lat;lon;timestamp;P1;durP1;ratioP1;P2;durP2;ratioP2
21546;SDS011;41275;51.912;4.388;2024-03-25T00:00:41;15.13;;;1.92;;
21546;SDS011;41275;51.912;4.388;2024-03-25T00:06:03;12.02;;;2.10;;
21546;SDS011;41275;51.912;4.388;2024-03-25T00:11:24;10.15;;;1.60;;
21546;SDS011;41275;51.912;4.388;2024-03-25T00:16:45;12.55;;;1.58;;
21546;SDS011;41275;51.912;4.388;2024-03-25T00:22:07;6.95;;;1.08;;
21546;SDS011;41275;51.912;4.388;2024-03-25T00:27:28;9.87;;;1.40;;
21546;SDS011;41275;51.912;4.388;2024-03-25T00:32:50;12.90;;;2.33;;
21546;SDS011;41275;51.912;4.388;2024-03-25T00:38:12;12.63;;;1.63;;
21546;SDS011;41275;51.912;4.388;2024-03-25T00:43:33;13.10;;;1.88;;
21546;SDS011;41275;51.912;4.388;2024-03-25T00:48:55;7.25;;;1.60;;
21546;SDS011;41275;51.912;4.388;2024-03-25T00:54:16;13.88;;;2.00;;
21546;SDS011;41275;51.912;4.388;2024-03-25T00:59:37;12.02;;;1.80;;
21546;SDS011;41275;51.912;4.388;2024-03-25T01:04:58;5.60;;;0.97;;
21546;SDS011;41275;51.912;4.388;2024-03-25T01:10:20;9.50;;;1.40;;
21546;SDS011;41275;51.912;4.388;2024-03-25T01:15:41;11.43;;;2.08;;
21546;SDS011;41275;51.912;4.388;2024-03-25T01:21:03;13.07;;;2.00;;
21546;SDS011;41275;51.912;4.388;2024-03-25T01:26:24;9.20;;;1.48;;
21546;SDS011;41275;51.912;4.388;2024-03-25T01:31:45;12.20;;;1.60;;
21546;SDS011;41275;51.912;4.388;2024-03-25T01:37:07;7.85;;;1.50;;
21546;SDS011;41275;51.912;4.388;2024-03-25T01:42:28;8.45;;;1.23;;
21546;SDS011;41275;51.912;4.388;2024-03-25T01:47:49;9.77;;;1.52;;
21546;SDS011;41275;51.912;4.388;2024-03-25T01:53:11;7.17;;;1.13;;
21546;SDS011;41275;51.912;4.388;2024-03-25T01:58:34;11.03;;;1.23;;
21546;SDS011;41275;51.912;4.388;2024-03-25T02:03:55;13.93;;;1.53;;
21546;SDS011;41275;51.912;4.388;2024-03-25T02:09:17;6.90;;;1.30;;
21546;SDS011;41275;51.912;4.388;2024-03-25T02:14:39;7.50;;;1.47;;
21546;SDS011;41275;51.912;4.388;2024-03-25T02:20:00;11.13;;;1.63;;
21546;SDS011;41275;51.912;4.388;2024-03-25T02:25:23;10.53;;;1.37;;
21546;SDS011;41275;51.912;4.388;2024-03-25T02:30:45;9.80;;;1.33;;
21546;SDS011;41275;51.912;4.388;2024-03-25T02:36:06;8.23;;;1.38;;
21546;SDS011;41275;51.912;4.388;2024-03-25T02:41:28;8.85;;;1.50;;
21546;SDS011;41275;51.912;4.388;2024-03-25T02:46:51;6.60;;;0.97;;
21546;SDS011;41275;51.912;4.388;2024-03-25T02:52:13;6.20;;;1.42;;
21546;SDS011;41275;51.912;4.388;2024-03-25T02:57:35;9.65;;;1.38;;
21546;SDS011;41275;51.912;4.388;2024-03-25T03:02:56;10.63;;;1.63;;
21546;SDS011;41275;51.912;4.388;2024-03-25T03:08:19;12.65;;;1.52;;
21546;SDS011;41275;51.912;4.388;2024-03-25T03:13:40;9.00;;;1.42;;
21546;SDS011;41275;51.912;4.388;2024-03-25T03:19:01;9.18;;;1.90;;
21546;SDS011;41275;51.912;4.388;2024-03-25T03:24:23;9.05;;;1.70;;
21546;SDS011;41275;51.912;4.388;2024-03-25T03:29:44;9.13;;;2.70;;
21546;SDS011;41275;51.912;4.388;2024-03-25T03:35:05;11.48;;;2.67;;
21546;SDS011;41275;51.912;4.388;2024-03-25T03:40:28;15.05;;;3.88;;
21546;SDS011;41275;51.912;4.388;2024-03-25T03:45:49;14.55;;;3.63;;
21546;SDS011;41275;51.912;4.388;2024-03-25T03:51:11;14.10;;;3.17;;
21546;SDS011;41275;51.912;4.388;2024-03-25T03:56:32;11.88;;;3.00;;
21546;SDS011;41275;51.912;4.388;2024-03-25T04:01:53;9.82;;;2.33;;
21546;SDS011;41275;51.912;4.388;2024-03-25T04:07:15;12.57;;;2.70;;
21546;SDS011;41275;51.912;4.388;2024-03-25T04:12:36;12.88;;;2.67;;
21546;SDS011;41275;51.912;4.388;2024-03-25T04:17:57;14.23;;;3.40;;
21546;SDS011;41275;51.912;4.388;2024-03-25T04:23:19;12.38;;;3.40;;
21546;SDS011;41275;51.912;4.388;2024-03-25T04:28:40;14.00;;;3.22;;
21546;SDS011;41275;51.912;4.388;2024-03-25T04:34:01;10.68;;;2.78;;
21546;SDS011;41275;51.912;4.388;2024-03-25T04:39:22;11.30;;;2.47;;
21546;SDS011;41275;51.912;4.388;2024-03-25T04:44:44;11.32;;;2.13;;
21546;SDS011;41275;51.912;4.388;2024-03-25T04:50:05;8.70;;;1.90;;
21546;SDS011;41275;51.912;4.388;2024-03-25T04:55:27;9.37;;;2.30;;
21546;SDS011;41275;51.912;4.388;2024-03-25T05:00:48;7.60;;;2.00;;
21546;SDS011;41275;51.912;4.388;2024-03-25T05:06:10;11.47;;;2.10;;
21546;SDS011;41275;51.912;4.388;2024-03-25T05:11:32;9.83;;;1.53;;
21546;SDS011;41275;51.912;4.388;2024-03-25T05:16:53;8.25;;;1.90;;
21546;SDS011;41275;51.912;4.388;2024-03-25T05:22:14;8.05;;;1.67;;
21546;SDS011;41275;51.912;4.388;2024-03-25T05:27:36;11.73;;;2.37;;
21546;SDS011;41275;51.912;4.388;2024-03-25T05:32:58;11.97;;;1.73;;
21546;SDS011;41275;51.912;4.388;2024-03-25T05:38:19;11.67;;;2.00;;
21546;SDS011;41275;51.912;4.388;2024-03-25T05:43:40;11.60;;;2.00;;
21546;SDS011;41275;51.912;4.388;2024-03-25T05:49:04;7.40;;;1.90;;
21546;SDS011;41275;51.912;4.388;2024-03-25T05:54:25;8.52;;;2.03;;
21546;SDS011;41275;51.912;4.388;2024-03-25T05:59:46;10.70;;;1.87;;
21546;SDS011;41275;51.912;4.388;2024-03-25T06:05:07;10.77;;;1.73;;
21546;SDS011;41275;51.912;4.388;2024-03-25T06:10:29;11.07;;;2.63;;
21546;SDS011;41275;51.912;4.388;2024-03-25T06:15:50;8.50;;;2.87;;
21546;SDS011;41275;51.912;4.388;2024-03-25T06:21:11;12.17;;;3.63;;
21546;SDS011;41275;51.912;4.388;2024-03-25T06:26:34;16.10;;;4.10;;
21546;SDS011;41275;51.912;4.388;2024-03-25T06:31:55;17.52;;;4.72;;
21546;SDS011;41275;51.912;4.388;2024-03-25T06:37:35;12.88;;;4.60;;
21546;SDS011;41275;51.912;4.388;2024-03-25T06:42:56;14.80;;;4.40;;
21546;SDS011;41275;51.912;4.388;2024-03-25T06:48:18;14.50;;;5.10;;
21546;SDS011;41275;51.912;4.388;2024-03-25T06:53:39;16.38;;;4.57;;
21546;SDS011;41275;51.912;4.388;2024-03-25T06:59:00;16.52;;;5.65;;
21546;SDS011;41275;51.912;4.388;2024-03-25T07:04:21;16.60;;;5.10;;
21546;SDS011;41275;51.912;4.388;2024-03-25T07:09:43;15.32;;;5.75;;
21546;SDS011;41275;51.912;4.388;2024-03-25T07:15:04;13.73;;;5.50;;
21546;SDS011;41275;51.912;4.388;2024-03-25T07:20:26;12.80;;;5.68;;
21546;SDS011;41275;51.912;4.388;2024-03-25T07:25:47;15.63;;;5.45;;
21546;SDS011;41275;51.912;4.388;2024-03-25T07:31:08;13.57;;;5.63;;
21546;SDS011;41275;51.912;4.388;2024-03-25T07:36:29;13.95;;;5.15;;
21546;SDS011;41275;51.912;4.388;2024-03-25T07:41:55;12.63;;;5.13;;
21546;SDS011;41275;51.912;4.388;2024-03-25T07:47:17;12.20;;;4.82;;
21546;SDS011;41275;51.912;4.388;2024-03-25T07:52:38;13.52;;;4.45;;
21546;SDS011;41275;51.912;4.388;2024-03-25T07:58:01;15.63;;;4.83;;
21546;SDS011;41275;51.912;4.388;2024-03-25T08:03:22;12.95;;;4.40;;
21546;SDS011;41275;51.912;4.388;2024-03-25T08:08:45;11.83;;;4.53;;
21546;SDS011;41275;51.912;4.388;2024-03-25T08:14:07;20.08;;;5.38;;
21546;SDS011;41275;51.912;4.388;2024-03-25T08:19:28;18.45;;;5.60;;
21546;SDS011;41275;51.912;4.388;2024-03-25T08:24:49;13.65;;;5.32;;
21546;SDS011;41275;51.912;4.388;2024-03-25T08:30:10;16.15;;;6.38;;
21546;SDS011;41275;51.912;4.388;2024-03-25T08:35:32;14.05;;;6.55;;
21546;SDS011;41275;51.912;4.388;2024-03-25T08:40:53;16.57;;;6.60;;
21546;SDS011;41275;51.912;4.388;2024-03-25T08:46:14;14.53;;;6.50;;
21546;SDS011;41275;51.912;4.388;2024-03-25T08:51:35;15.15;;;6.03;;
21546;SDS011;41275;51.912;4.388;2024-03-25T08:56:57;13.63;;;5.88;;
21546;SDS011;41275;51.912;4.388;2024-03-25T09:02:18;13.45;;;5.38;;
21546;SDS011;41275;51.912;4.388;2024-03-25T09:07:39;10.00;;;5.10;;
21546;SDS011;41275;51.912;4.388;2024-03-25T09:13:00;13.27;;;5.43;;
21546;SDS011;41275;51.912;4.388;2024-03-25T09:18:22;15.07;;;6.30;;
21546;SDS011;41275;51.912;4.388;2024-03-25T09:23:43;19.35;;;6.55;;
21546;SDS011;41275;51.912;4.388;2024-03-25T09:29:04;17.35;;;6.70;;
21546;SDS011;41275;51.912;4.388;2024-03-25T09:34:25;16.30;;;6.40;;
21546;SDS011;41275;51.912;4.388;2024-03-25T09:39:46;20.17;;;6.43;;
21546;SDS011;41275;51.912;4.388;2024-03-25T09:45:08;15.57;;;6.68;;
21546;SDS011;41275;51.912;4.388;2024-03-25T09:50:31;20.33;;;7.10;;
21546;SDS011;41275;51.912;4.388;2024-03-25T09:55:52;16.27;;;6.97;;
21546;SDS011;41275;51.912;4.388;2024-03-25T10:01:14;15.00;;;6.47;;
21546;SDS011;41275;51.912;4.388;2024-03-25T10:06:35;18.60;;;6.72;;
21546;SDS011;41275;51.912;4.388;2024-03-25T10:11:56;14.97;;;5.90;;
21546;SDS011;41275;51.912;4.388;2024-03-25T10:17:17;19.05;;;5.93;;
21546;SDS011;41275;51.912;4.388;2024-03-25T10:22:42;16.95;;;6.35;;
21546;SDS011;41275;51.912;4.388;2024-03-25T10:28:08;16.07;;;6.27;;
21546;SDS011;41275;51.912;4.388;2024-03-25T10:33:29;15.50;;;5.65;;
21546;SDS011;41275;51.912;4.388;2024-03-25T10:38:54;15.90;;;5.68;;
21546;SDS011;41275;51.912;4.388;2024-03-25T10:44:16;13.87;;;5.60;;
21546;SDS011;41275;51.912;4.388;2024-03-25T10:49:40;12.67;;;5.93;;
21546;SDS011;41275;51.912;4.388;2024-03-25T10:55:11;12.10;;;5.93;;
21546;SDS011;41275;51.912;4.388;2024-03-25T11:00:36;13.13;;;5.67;;
21546;SDS011;41275;51.912;4.388;2024-03-25T11:05:58;14.98;;;6.15;;
21546;SDS011;41275;51.912;4.388;2024-03-25T11:11:20;15.38;;;6.18;;
21546;SDS011;41275;51.912;4.388;2024-03-25T11:16:41;20.02;;;7.53;;
21546;SDS011;41275;51.912;4.388;2024-03-25T11:22:06;14.05;;;6.82;;
21546;SDS011;41275;51.912;4.388;2024-03-25T11:27:28;13.32;;;5.18;;
21546;SDS011;41275;51.912;4.388;2024-03-25T11:32:53;16.30;;;6.03;;
21546;SDS011;41275;51.912;4.388;2024-03-25T11:38:15;10.48;;;3.80;;
21546;SDS011;41275;51.912;4.388;2024-03-25T11:43:36;10.68;;;4.50;;
21546;SDS011;41275;51.912;4.388;2024-03-25T11:48:58;12.27;;;4.40;;
21546;SDS011;41275;51.912;4.388;2024-03-25T11:54:19;13.80;;;4.63;;
21546;SDS011;41275;51.912;4.388;2024-03-25T11:59:40;15.25;;;5.20;;
21546;SDS011;41275;51.912;4.388;2024-03-25T12:05:01;13.25;;;4.72;;
21546;SDS011;41275;51.912;4.388;2024-03-25T12:10:22;12.52;;;4.93;;
21546;SDS011;41275;51.912;4.388;2024-03-25T12:16:02;11.75;;;4.25;;
21546;SDS011;41275;51.912;4.388;2024-03-25T12:21:24;12.45;;;4.15;;
21546;SDS011;41275;51.912;4.388;2024-03-25T12:26:46;9.97;;;3.73;;
21546;SDS011;41275;51.912;4.388;2024-03-25T12:32:09;8.52;;;2.83;;
21546;SDS011;41275;51.912;4.388;2024-03-25T12:37:30;7.28;;;2.42;;
21546;SDS011;41275;51.912;4.388;2024-03-25T12:42:52;6.40;;;2.17;;
21546;SDS011;41275;51.912;4.388;2024-03-25T12:48:14;6.33;;;2.47;;
21546;SDS011;41275;51.912;4.388;2024-03-25T12:53:35;7.40;;;2.30;;
21546;SDS011;41275;51.912;4.388;2024-03-25T12:58:56;6.43;;;2.10;;
21546;SDS011;41275;51.912;4.388;2024-03-25T13:04:17;6.22;;;2.20;;
21546;SDS011;41275;51.912;4.388;2024-03-25T13:09:38;4.90;;;2.10;;
21546;SDS011;41275;51.912;4.388;2024-03-25T13:15:00;5.10;;;1.60;;
21546;SDS011;41275;51.912;4.388;2024-03-25T13:20:21;4.68;;;1.85;;
21546;SDS011;41275;51.912;4.388;2024-03-25T13:25:42;3.72;;;1.70;;
21546;SDS011;41275;51.912;4.388;2024-03-25T13:31:03;4.90;;;1.80;;
21546;SDS011;41275;51.912;4.388;2024-03-25T13:36:25;4.50;;;1.60;;
21546;SDS011;41275;51.912;4.388;2024-03-25T13:41:47;5.93;;;2.05;;
21546;SDS011;41275;51.912;4.388;2024-03-25T13:47:09;5.53;;;1.70;;
21546;SDS011;41275;51.912;4.388;2024-03-25T13:52:30;5.80;;;1.50;;
21546;SDS011;41275;51.912;4.388;2024-03-25T13:57:51;5.35;;;1.52;;
21546;SDS011;41275;51.912;4.388;2024-03-25T14:03:13;5.80;;;1.50;;
21546;SDS011;41275;51.912;4.388;2024-03-25T14:08:35;5.10;;;1.50;;
21546;SDS011;41275;51.912;4.388;2024-03-25T14:13:56;4.63;;;1.50;;
21546;SDS011;41275;51.912;4.388;2024-03-25T14:19:18;6.20;;;2.20;;
21546;SDS011;41275;51.912;4.388;2024-03-25T14:24:39;6.13;;;1.70;;
21546;SDS011;41275;51.912;4.388;2024-03-25T14:30:00;5.37;;;1.73;;
21546;SDS011;41275;51.912;4.388;2024-03-25T14:35:22;4.43;;;1.48;;
21546;SDS011;41275;51.912;4.388;2024-03-25T14:40:43;4.00;;;1.80;;
21546;SDS011;41275;51.912;4.388;2024-03-25T14:46:04;5.35;;;1.80;;
21546;SDS011;41275;51.912;4.388;2024-03-25T14:51:25;5.57;;;2.30;;
21546;SDS011;41275;51.912;4.388;2024-03-25T14:56:47;5.10;;;1.70;;
21546;SDS011;41275;51.912;4.388;2024-03-25T15:02:08;4.30;;;1.63;;
21546;SDS011;41275;51.912;4.388;2024-03-25T15:07:33;4.85;;;1.80;;
21546;SDS011;41275;51.912;4.388;2024-03-25T15:12:54;4.38;;;1.83;;
21546;SDS011;41275;51.912;4.388;2024-03-25T15:18:16;5.10;;;1.50;;
21546;SDS011;41275;51.912;4.388;2024-03-25T15:23:37;4.82;;;1.70;;
21546;SDS011;41275;51.912;4.388;2024-03-25T15:28:58;3.03;;;1.25;;
21546;SDS011;41275;51.912;4.388;2024-03-25T15:34:19;5.93;;;1.60;;
21546;SDS011;41275;51.912;4.388;2024-03-25T15:39:41;4.80;;;1.50;;
21546;SDS011;41275;51.912;4.388;2024-03-25T15:45:02;5.78;;;1.33;;
21546;SDS011;41275;51.912;4.388;2024-03-25T15:50:23;4.25;;;1.60;;
21546;SDS011;41275;51.912;4.388;2024-03-25T15:55:45;4.70;;;1.23;;
21546;SDS011;41275;51.912;4.388;2024-03-25T16:01:06;3.00;;;1.10;;
21546;SDS011;41275;51.912;4.388;2024-03-25T16:06:28;3.05;;;1.10;;
21546;SDS011;41275;51.912;4.388;2024-03-25T16:11:49;4.03;;;1.10;;
21546;SDS011;41275;51.912;4.388;2024-03-25T16:17:10;4.70;;;1.50;;
21546;SDS011;41275;51.912;4.388;2024-03-25T16:22:31;3.67;;;1.20;;
21546;SDS011;41275;51.912;4.388;2024-03-25T16:27:54;3.17;;;1.20;;
21546;SDS011;41275;51.912;4.388;2024-03-25T16:33:15;4.50;;;1.05;;
21546;SDS011;41275;51.912;4.388;2024-03-25T16:38:36;3.50;;;1.10;;
21546;SDS011;41275;51.912;4.388;2024-03-25T16:43:57;3.08;;;1.20;;
21546;SDS011;41275;51.912;4.388;2024-03-25T16:49:19;3.10;;;1.13;;
21546;SDS011;41275;51.912;4.388;2024-03-25T16:54:40;3.40;;;1.05;;
21546;SDS011;41275;51.912;4.388;2024-03-25T17:00:02;2.03;;;0.83;;
21546;SDS011;41275;51.912;4.388;2024-03-25T17:05:24;2.67;;;1.13;;
21546;SDS011;41275;51.912;4.388;2024-03-25T17:10:45;3.38;;;1.10;;
21546;SDS011;41275;51.912;4.388;2024-03-25T17:16:08;4.80;;;1.10;;
21546;SDS011;41275;51.912;4.388;2024-03-25T17:21:29;3.05;;;1.23;;
21546;SDS011;41275;51.912;4.388;2024-03-25T17:26:50;3.90;;;1.10;;
21546;SDS011;41275;51.912;4.388;2024-03-25T17:32:11;4.07;;;1.40;;
21546;SDS011;41275;51.912;4.388;2024-03-25T17:37:33;7.75;;;1.58;;
21546;SDS011;41275;51.912;4.388;2024-03-25T17:42:54;3.80;;;1.40;;
21546;SDS011;41275;51.912;4.388;2024-03-25T17:48:15;3.70;;;1.30;;
21546;SDS011;41275;51.912;4.388;2024-03-25T17:53:36;4.43;;;1.37;;
21546;SDS011;41275;51.912;4.388;2024-03-25T17:58:57;4.45;;;1.40;;
21546;SDS011;41275;51.912;4.388;2024-03-25T18:04:19;4.65;;;1.83;;
21546;SDS011;41275;51.912;4.388;2024-03-25T18:09:40;4.70;;;1.70;;
21546;SDS011;41275;51.912;4.388;2024-03-25T18:15:01;2.55;;;1.30;;
21546;SDS011;41275;51.912;4.388;2024-03-25T18:20:23;3.43;;;1.53;;
21546;SDS011;41275;51.912;4.388;2024-03-25T18:25:44;6.13;;;2.03;;
21546;SDS011;41275;51.912;4.388;2024-03-25T18:31:05;4.95;;;1.52;;
21546;SDS011;41275;51.912;4.388;2024-03-25T18:36:30;6.55;;;1.98;;
21546;SDS011;41275;51.912;4.388;2024-03-25T18:41:51;4.87;;;2.17;;
21546;SDS011;41275;51.912;4.388;2024-03-25T18:47:12;4.75;;;2.03;;
21546;SDS011;41275;51.912;4.388;2024-03-25T18:52:34;4.70;;;2.10;;
21546;SDS011;41275;51.912;4.388;2024-03-25T18:57:55;5.22;;;1.90;;
21546;SDS011;41275;51.912;4.388;2024-03-25T19:03:17;5.10;;;1.83;;
21546;SDS011;41275;51.912;4.388;2024-03-25T19:08:38;6.05;;;2.00;;
21546;SDS011;41275;51.912;4.388;2024-03-25T19:14:00;4.90;;;1.80;;
21546;SDS011;41275;51.912;4.388;2024-03-25T19:19:23;3.72;;;1.70;;
21546;SDS011;41275;51.912;4.388;2024-03-25T19:24:44;6.72;;;1.90;;
21546;SDS011;41275;51.912;4.388;2024-03-25T19:30:05;5.60;;;1.83;;
21546;SDS011;41275;51.912;4.388;2024-03-25T19:35:29;6.53;;;2.42;;
21546;SDS011;41275;51.912;4.388;2024-03-25T19:40:50;3.97;;;2.03;;
21546;SDS011;41275;51.912;4.388;2024-03-25T19:46:11;4.72;;;2.17;;
21546;SDS011;41275;51.912;4.388;2024-03-25T19:51:33;5.30;;;2.10;;
21546;SDS011;41275;51.912;4.388;2024-03-25T19:56:54;4.30;;;2.33;;
21546;SDS011;41275;51.912;4.388;2024-03-25T20:02:15;5.72;;;2.40;;
21546;SDS011;41275;51.912;4.388;2024-03-25T20:07:36;5.72;;;1.98;;
21546;SDS011;41275;51.912;4.388;2024-03-25T20:12:57;7.50;;;2.47;;
21546;SDS011;41275;51.912;4.388;2024-03-25T20:18:19;5.65;;;2.35;;
21546;SDS011;41275;51.912;4.388;2024-03-25T20:23:40;7.25;;;2.30;;
21546;SDS011;41275;51.912;4.388;2024-03-25T20:29:01;7.72;;;2.42;;
21546;SDS011;41275;51.912;4.388;2024-03-25T20:34:23;7.85;;;2.30;;
21546;SDS011;41275;51.912;4.388;2024-03-25T20:39:44;7.88;;;2.42;;
21546;SDS011;41275;51.912;4.388;2024-03-25T20:45:05;5.77;;;2.33;;
21546;SDS011;41275;51.912;4.388;2024-03-25T20:50:26;5.93;;;2.30;;
21546;SDS011;41275;51.912;4.388;2024-03-25T20:55:48;4.22;;;2.00;;
21546;SDS011;41275;51.912;4.388;2024-03-25T21:01:09;6.80;;;2.33;;
21546;SDS011;41275;51.912;4.388;2024-03-25T21:06:30;11.00;;;2.13;;
21546;SDS011;41275;51.912;4.388;2024-03-25T21:11:51;5.28;;;2.17;;
21546;SDS011;41275;51.912;4.388;2024-03-25T21:17:12;5.93;;;2.20;;
21546;SDS011;41275;51.912;4.388;2024-03-25T21:22:34;5.00;;;1.90;;
21546;SDS011;41275;51.912;4.388;2024-03-25T21:27:55;9.00;;;2.67;;
21546;SDS011;41275;51.912;4.388;2024-03-25T21:33:16;4.45;;;1.85;;
21546;SDS011;41275;51.912;4.388;2024-03-25T21:38:37;5.45;;;1.83;;
21546;SDS011;41275;51.912;4.388;2024-03-25T21:43:59;6.37;;;2.13;;
21546;SDS011;41275;51.912;4.388;2024-03-25T21:49:20;8.82;;;2.30;;
21546;SDS011;41275;51.912;4.388;2024-03-25T21:54:41;5.30;;;2.20;;
21546;SDS011;41275;51.912;4.388;2024-03-25T22:00:03;7.27;;;2.47;;
21546;SDS011;41275;51.912;4.388;2024-03-25T22:05:25;6.28;;;2.00;;
21546;SDS011;41275;51.912;4.388;2024-03-25T22:10:47;6.50;;;2.10;;
21546;SDS011;41275;51.912;4.388;2024-03-25T22:16:08;7.13;;;2.33;;
21546;SDS011;41275;51.912;4.388;2024-03-25T22:21:29;8.23;;;2.08;;
21546;SDS011;41275;51.912;4.388;2024-03-25T22:26:50;4.25;;;1.85;;
21546;SDS011;41275;51.912;4.388;2024-03-25T22:32:11;8.10;;;2.15;;
21546;SDS011;41275;51.912;4.388;2024-03-25T22:37:33;6.17;;;2.30;;
21546;SDS011;41275;51.912;4.388;2024-03-25T22:42:54;5.65;;;1.95;;
21546;SDS011;41275;51.912;4.388;2024-03-25T22:48:15;9.38;;;2.25;;
21546;SDS011;41275;51.912;4.388;2024-03-25T22:53:36;5.90;;;2.20;;
21546;SDS011;41275;51.912;4.388;2024-03-25T22:58:58;6.25;;;2.10;;
21546;SDS011;41275;51.912;4.388;2024-03-25T23:04:19;4.85;;;2.10;;
21546;SDS011;41275;51.912;4.388;2024-03-25T23:09:41;5.23;;;1.80;;
21546;SDS011;41275;51.912;4.388;2024-03-25T23:15:02;5.35;;;2.10;;
21546;SDS011;41275;51.912;4.388;2024-03-25T23:20:23;7.13;;;2.67;;
21546;SDS011;41275;51.912;4.388;2024-03-25T23:25:45;4.80;;;1.60;;
21546;SDS011;41275;51.912;4.388;2024-03-25T23:31:07;7.07;;;2.40;;
21546;SDS011;41275;51.912;4.388;2024-03-25T23:36:28;5.43;;;1.73;;
21546;SDS011;41275;51.912;4.388;2024-03-25T23:41:49;2.73;;;1.60;;
21546;SDS011;41275;51.912;4.388;2024-03-25T23:47:10;4.70;;;1.73;;
21546;SDS011;41275;51.912;4.388;2024-03-25T23:52:32;4.57;;;1.80;;
21546;SDS011;41275;51.912;4.388;2024-03-25T23:57:54;4.47;;;1.97;;
